createdAt,value
2022-08-05T00:01:28.059Z,100571.72
2022-08-05T00:03:57.052Z,100542.44
2022-08-05T00:06:29.357Z,100545.25
2022-08-05T00:09:00.196Z,100569.22
2022-08-05T00:11:30.406Z,100578.84
2022-08-05T00:14:02.593Z,100576.84
2022-08-05T00:16:52.870Z,100578.44
2022-08-05T00:19:22.476Z,100578.56
2022-08-05T00:21:49.256Z,100584.81
2022-08-05T00:24:16.090Z,100576.66
2022-08-05T00:26:50.769Z,100584.53
2022-08-05T00:29:18.813Z,100591.78
2022-08-05T00:32:10.206Z,100589.66
2022-08-05T00:34:56.202Z,100580.72
2022-08-05T00:37:22.242Z,100583.25
2022-08-05T00:39:58.114Z,100580.97
2022-08-05T00:42:37.857Z,100582.69
2022-08-05T00:45:08.486Z,100582.84
2022-08-05T00:47:56.886Z,100579.00
2022-08-05T00:50:22.296Z,100590.69
2022-08-05T00:52:52.021Z,100585.22
2022-08-05T00:55:19.885Z,100574.41
2022-08-05T00:57:57.832Z,100571.03
2022-08-05T01:00:26.030Z,100569.97
2022-08-05T01:02:52.614Z,100575.00
2022-08-05T01:05:19.469Z,100586.47
2022-08-05T01:08:42.039Z,100595.59
2022-08-05T01:10:38.313Z,100584.69
2022-08-05T01:13:12.853Z,100577.19
2022-08-05T01:15:47.879Z,100585.75
2022-08-05T01:18:16.445Z,100592.16
2022-08-05T01:21:03.968Z,100585.03
2022-08-05T01:24:14.318Z,100592.34
2022-08-05T01:26:52.285Z,100584.22
2022-08-05T01:29:35.070Z,100583.41
2022-08-05T01:32:03.790Z,100580.47
2022-08-05T01:34:38.545Z,100589.91
2022-08-05T01:37:24.665Z,100595.16
2022-08-05T01:39:54.768Z,100597.09
2022-08-05T01:42:26.617Z,100603.09
2022-08-05T01:44:56.473Z,100609.41
2022-08-05T01:47:38.876Z,100607.31
2022-08-05T01:50:28.653Z,100608.34
2022-08-05T01:53:00.395Z,100611.03
2022-08-05T01:55:29.119Z,100614.22
2022-08-05T01:58:10.810Z,100624.63
2022-08-05T02:00:48.701Z,100624.03
2022-08-05T02:03:29.255Z,100620.78
2022-08-05T02:06:03.600Z,100615.53
2022-08-05T02:08:57.801Z,100618.34
2022-08-05T02:11:33.672Z,100611.63
2022-08-05T02:14:12.459Z,100613.44
2022-08-05T02:16:53.102Z,100609.41
2022-08-05T02:19:22.766Z,100626.13
2022-08-05T02:22:25.407Z,100621.03
2022-08-05T02:25:00.024Z,100620.84
2022-08-05T02:27:30.198Z,100628.72
2022-08-05T02:30:13.833Z,100633.09
2022-08-05T02:32:40.668Z,100639.28
2022-08-05T02:35:14.302Z,100653.91
2022-08-05T02:37:47.814Z,100655.63
2022-08-05T02:40:21.611Z,100667.31
2022-08-05T02:42:53.016Z,100673.50
2022-08-05T02:45:24.121Z,100676.19
2022-08-05T02:48:07.591Z,100679.72
2022-08-05T02:50:38.938Z,100688.19
2022-08-05T02:53:11.798Z,100694.00
2022-08-05T02:55:53.802Z,100693.94
2022-08-05T02:58:23.335Z,100689.34
2022-08-05T03:00:55.992Z,100688.16
2022-08-05T03:03:23.393Z,100693.88
2022-08-05T03:06:53.878Z,100695.22
2022-08-05T03:08:42.550Z,100688.41
2022-08-05T03:11:54.362Z,100678.41
2022-08-05T03:14:04.740Z,100663.63
2022-08-05T03:16:31.647Z,100677.47
2022-08-05T03:18:58.236Z,100685.41
2022-08-05T03:21:24.642Z,100690.06
2022-08-05T03:23:55.636Z,100692.28
2022-08-05T03:26:31.595Z,100699.50
2022-08-05T03:28:59.014Z,100710.97
2022-08-05T03:31:56.791Z,100713.91
2022-08-05T03:34:12.422Z,100709.38
2022-08-05T03:36:38.833Z,100687.97
2022-08-05T03:39:07.978Z,100676.59
2022-08-05T03:41:38.685Z,100693.47
2022-08-05T03:44:12.145Z,100704.78
2022-08-05T03:46:38.629Z,100699.03
2022-08-05T03:49:05.092Z,100684.06
2022-08-05T03:52:39.166Z,100669.59
2022-08-05T03:55:52.916Z,100652.56
2022-08-05T03:57:42.636Z,100640.19
2022-08-05T04:00:16.010Z,100644.34
2022-08-05T04:02:52.310Z,100613.47
2022-08-05T04:05:25.535Z,100600.72
2022-08-05T04:07:58.623Z,100604.22
2022-08-05T04:10:27.768Z,100592.47
2022-08-05T04:12:55.330Z,100575.91
2022-08-05T04:15:24.578Z,100571.25
2022-08-05T04:17:56.368Z,100575.66
2022-08-05T04:20:24.224Z,100579.34
2022-08-05T04:22:50.699Z,100599.31
2022-08-05T04:25:17.224Z,100613.09
2022-08-05T04:27:56.861Z,100626.31
2022-08-05T04:30:26.445Z,100635.38
2022-08-05T04:32:53.098Z,100642.75
2022-08-05T04:35:20.015Z,100655.03
2022-08-05T04:38:00.979Z,100655.97
2022-08-05T04:40:29.568Z,100662.19
2022-08-05T04:42:55.983Z,100678.75
2022-08-05T04:45:31.206Z,100686.16
2022-08-05T04:48:18.593Z,100700.75
2022-08-05T04:51:03.044Z,100732.59
2022-08-05T04:53:38.914Z,100733.28
2022-08-05T04:56:33.769Z,100741.28
2022-08-05T04:58:55.188Z,100742.72
2022-08-05T05:01:33.752Z,100747.59
2022-08-05T05:04:08.076Z,100741.78
2022-08-05T05:06:44.265Z,100748.00
2022-08-05T05:09:14.083Z,100748.34
2022-08-05T05:11:53.237Z,100752.25
2022-08-05T05:14:31.605Z,100758.47
2022-08-05T05:17:02.112Z,100764.59
2022-08-05T05:19:36.303Z,100755.91
2022-08-05T05:22:23.097Z,100734.03
2022-08-05T05:24:57.573Z,100711.69
2022-08-05T05:27:41.762Z,100711.16
2022-08-05T05:30:15.275Z,100730.34
2022-08-05T05:32:56.625Z,100742.50
2022-08-05T05:35:23.290Z,100740.34
2022-08-05T05:38:02.921Z,100734.34
2022-08-05T05:40:31.422Z,100731.63
2022-08-05T05:42:59.082Z,100726.00
2022-08-05T05:45:25.776Z,100742.09
2022-08-05T05:48:06.678Z,100730.28
2022-08-05T05:50:41.295Z,100735.09
2022-08-05T05:53:21.997Z,100723.31
2022-08-05T05:55:52.030Z,100717.94
2022-08-05T05:58:30.354Z,100712.06
2022-08-05T06:01:13.078Z,100714.81
2022-08-05T06:04:00.415Z,100719.34
2022-08-05T06:06:31.190Z,100716.53
2022-08-05T06:08:59.758Z,100710.09
2022-08-05T06:11:26.211Z,100724.34
2022-08-05T06:13:55.626Z,100708.22
2022-08-05T06:16:29.200Z,100718.19
2022-08-05T06:19:05.826Z,100719.97
2022-08-05T06:21:36.690Z,100712.19
2022-08-05T06:24:06.154Z,100723.44
2022-08-05T06:26:35.025Z,100721.50
2022-08-05T06:29:03.672Z,100724.53
2022-08-05T06:31:49.459Z,100729.25
2022-08-05T06:34:17.360Z,100725.09
2022-08-05T06:36:57.123Z,100732.28
2022-08-05T06:39:26.812Z,100725.34
2022-08-05T06:41:55.213Z,100719.81
2022-08-05T06:44:22.265Z,100734.94
2022-08-05T06:46:50.704Z,100738.66
2022-08-05T06:49:17.674Z,100741.72
2022-08-05T06:51:45.456Z,100755.38
2022-08-05T06:54:12.093Z,100759.97
2022-08-05T06:56:54.939Z,100774.16
2022-08-05T06:59:38.909Z,100763.84
2022-08-05T07:02:08.829Z,100776.97
2022-08-05T07:04:35.311Z,100797.78
2022-08-05T07:07:03.122Z,100817.84
2022-08-05T07:09:40.487Z,100826.81
2022-08-05T07:12:29.739Z,100838.03
2022-08-05T07:15:14.413Z,100840.16
2022-08-05T07:18:07.272Z,100840.38
2022-08-05T07:20:37.077Z,100833.94
2022-08-05T07:23:05.455Z,100829.91
2022-08-05T07:25:56.311Z,100839.16
2022-08-05T07:28:19.504Z,100840.72
2022-08-05T07:30:50.275Z,100843.47
2022-08-05T07:33:21.268Z,100839.78
2022-08-05T07:36:20.214Z,100841.47
2022-08-05T07:38:46.906Z,100834.97
2022-08-05T07:42:13.332Z,100843.94
2022-08-05T07:44:06.307Z,100840.41
2022-08-05T07:46:41.092Z,100842.44
2022-08-05T07:49:13.667Z,100848.06
2022-08-05T07:51:54.523Z,100855.38
2022-08-05T07:54:30.866Z,100852.31
2022-08-05T07:57:14.011Z,100863.75
2022-08-05T07:59:44.637Z,100866.34
2022-08-05T08:02:15.900Z,100860.91
2022-08-05T08:04:47.539Z,100868.16
2022-08-05T08:07:14.975Z,100873.38
2022-08-05T08:09:41.793Z,100868.47
2022-08-05T08:12:27.430Z,100856.88
2022-08-05T08:14:55.137Z,100853.28
2022-08-05T08:17:21.880Z,100857.69
2022-08-05T08:20:22.670Z,100849.31
2022-08-05T08:22:35.626Z,100849.38
2022-08-05T08:25:03.414Z,100869.75
2022-08-05T08:27:40.256Z,100876.00
2022-08-05T08:30:28.623Z,100877.59
2022-08-05T08:33:04.814Z,100877.94
2022-08-05T08:35:41.383Z,100884.53
2022-08-05T08:38:18.944Z,100901.63
2022-08-05T08:41:08.425Z,100919.47
2022-08-05T08:45:23.974Z,100925.94
2022-08-05T08:46:24.001Z,100923.63
2022-08-05T08:49:08.034Z,100926.03
2022-08-05T08:52:03.312Z,100913.78
2022-08-05T08:54:27.322Z,100906.94
2022-08-05T08:56:54.186Z,100916.31
2022-08-05T08:59:23.435Z,100917.66
2022-08-05T09:01:57.065Z,100922.88
2022-08-05T09:04:30.492Z,100932.69
2022-08-05T09:06:57.692Z,100942.75
2022-08-05T09:09:25.069Z,100944.41
2022-08-05T09:11:55.289Z,100947.19
2022-08-05T09:14:56.575Z,100944.25
2022-08-05T09:17:40.223Z,100944.41
2022-08-05T09:20:02.551Z,100948.31
2022-08-05T09:23:05.137Z,100950.75
2022-08-05T09:26:00.129Z,100945.63
2022-08-05T09:28:32.065Z,100945.84
2022-08-05T09:31:43.443Z,100948.59
2022-08-05T09:33:58.638Z,100947.13
2022-08-05T09:36:45.822Z,100950.88
2022-08-05T09:39:22.990Z,100952.22
2022-08-05T09:42:00.586Z,100952.94
2022-08-05T09:44:41.969Z,100952.13
2022-08-05T09:47:13.989Z,100945.47
2022-08-05T09:50:00.466Z,100957.34
2022-08-05T09:52:32.133Z,100958.75
2022-08-05T09:55:55.029Z,100960.56
2022-08-05T09:57:54.576Z,100965.63
2022-08-05T10:00:25.822Z,100971.47
2022-08-05T10:02:54.648Z,100970.44
2022-08-05T10:05:24.455Z,100965.00
2022-08-05T10:08:36.917Z,100967.16
2022-08-05T10:10:54.191Z,100971.72
2022-08-05T10:13:44.189Z,100974.66
2022-08-05T10:16:41.803Z,100976.13
2022-08-05T10:19:23.283Z,100988.47
2022-08-05T10:21:50.493Z,100990.88
2022-08-05T10:24:18.222Z,100996.56
2022-08-05T10:26:51.328Z,101001.41
2022-08-05T10:29:24.140Z,101006.03
2022-08-05T10:32:51.846Z,101007.56
2022-08-05T10:34:55.333Z,101021.41
2022-08-05T10:37:22.210Z,101023.84
2022-08-05T10:40:03.749Z,101032.97
2022-08-05T10:42:43.642Z,101034.03
2022-08-05T10:45:23.928Z,101039.88
2022-08-05T10:48:29.971Z,101037.53
2022-08-05T10:50:58.824Z,101039.75
2022-08-05T10:53:34.078Z,101044.97
2022-08-05T10:56:21.281Z,101044.16
2022-08-05T10:58:54.652Z,101055.44
2022-08-05T11:01:54.998Z,101049.38
2022-08-05T11:04:22.828Z,101047.19
2022-08-05T11:07:00.450Z,101049.41
2022-08-05T11:09:39.284Z,101052.41
2022-08-05T11:12:24.850Z,101066.16
2022-08-05T11:15:20.805Z,101064.38
2022-08-05T11:17:59.554Z,101074.06
2022-08-05T11:20:46.057Z,101073.09
2022-08-05T11:23:33.011Z,101060.78
2022-08-05T11:26:16.363Z,101066.19
2022-08-05T11:28:56.065Z,101067.69
2022-08-05T11:31:56.486Z,101057.81
2022-08-05T11:34:18.052Z,101058.28
2022-08-05T11:36:52.826Z,101050.84
2022-08-05T11:39:49.486Z,101050.91
2022-08-05T11:42:24.175Z,101045.56
2022-08-05T11:45:02.477Z,101043.69
2022-08-05T11:47:49.317Z,101051.81
2022-08-05T11:50:16.460Z,101051.63
2022-08-05T11:52:44.103Z,101044.28
2022-08-05T11:55:13.466Z,101037.94
2022-08-05T11:58:10.355Z,101032.19
2022-08-05T12:00:32.068Z,101028.38
2022-08-05T12:03:29.194Z,101033.84
2022-08-05T12:06:02.409Z,101040.19
2022-08-05T12:08:29.028Z,101042.53
2022-08-05T12:11:05.672Z,101032.47
2022-08-05T12:13:48.478Z,101035.84
2022-08-05T12:16:18.820Z,101032.94
2022-08-05T12:18:49.554Z,101033.41
2022-08-05T12:21:23.645Z,101025.66
2022-08-05T12:24:04.897Z,101023.56
2022-08-05T12:26:44.279Z,101020.94
2022-08-05T12:29:22.597Z,101031.88
2022-08-05T12:31:54.512Z,101031.41
2022-08-05T12:34:30.305Z,101040.06
2022-08-05T12:37:00.209Z,101047.56
2022-08-05T12:39:34.402Z,101050.19
2022-08-05T12:42:08.540Z,101040.47
2022-08-05T12:44:35.116Z,101040.53
2022-08-05T12:47:02.623Z,101041.28
2022-08-05T12:50:03.257Z,101043.50
2022-08-05T12:52:39.190Z,101056.75
2022-08-05T12:55:22.675Z,101056.44
2022-08-05T12:58:49.789Z,101065.09
2022-08-05T13:02:01.963Z,101064.91
2022-08-05T13:03:32.435Z,101064.41
2022-08-05T13:05:59.556Z,101073.38
2022-08-05T13:08:29.727Z,101071.44
2022-08-05T13:11:01.004Z,101074.78
2022-08-05T13:14:06.784Z,101088.06
2022-08-05T13:16:17.110Z,101089.69
2022-08-05T13:18:57.583Z,101093.50
2022-08-05T13:21:27.720Z,101100.00
2022-08-05T13:23:55.172Z,101098.72
2022-08-05T13:26:29.825Z,101102.75
2022-08-05T13:28:56.741Z,101102.13
2022-08-05T13:32:03.094Z,101099.72
2022-08-05T13:34:22.502Z,101098.00
2022-08-05T13:36:51.652Z,101097.41
2022-08-05T13:39:24.524Z,101080.84
2022-08-05T13:42:04.648Z,101084.75
2022-08-05T13:44:32.417Z,101075.94
2022-08-05T13:47:04.971Z,101071.91
2022-08-05T13:49:35.806Z,101082.81
2022-08-05T13:52:16.471Z,101097.28
2022-08-05T13:54:43.022Z,101109.78
2022-08-05T13:57:20.809Z,101111.03
2022-08-05T13:59:57.493Z,101115.47
2022-08-05T14:02:29.855Z,101123.78
2022-08-05T14:05:15.452Z,101133.59
2022-08-05T14:07:59.535Z,101145.75
2022-08-05T14:10:32.206Z,101141.94
2022-08-05T14:12:59.390Z,101138.72
2022-08-05T14:16:06.161Z,101134.84
2022-08-05T14:18:17.699Z,101144.03
2022-08-05T14:20:46.871Z,101144.72
2022-08-05T14:23:13.864Z,101144.91
2022-08-05T14:25:44.964Z,101143.47
2022-08-05T14:28:26.068Z,101158.34
2022-08-05T14:30:53.655Z,101152.06
2022-08-05T14:33:22.971Z,101150.91
2022-08-05T14:35:51.831Z,101148.50
2022-08-05T14:38:27.793Z,101148.78
2022-08-05T14:40:59.626Z,101148.78
2022-08-05T14:43:57.672Z,101152.38
2022-08-05T14:46:12.495Z,101141.84
2022-08-05T14:48:38.933Z,101145.56
2022-08-05T14:51:05.357Z,101145.88
2022-08-05T14:53:34.881Z,101147.91
2022-08-05T14:56:11.180Z,101144.19
2022-08-05T14:58:38.547Z,101144.47
2022-08-05T15:01:15.998Z,101143.91
2022-08-05T15:03:43.291Z,101152.03
2022-08-05T15:06:15.146Z,101145.41
2022-08-05T15:08:57.717Z,101146.25
2022-08-05T15:11:52.692Z,101144.97
2022-08-05T15:14:11.690Z,101146.47
2022-08-05T15:16:58.074Z,101145.41
2022-08-05T15:19:24.467Z,101151.28
2022-08-05T15:21:51.214Z,101155.81
2022-08-05T15:24:18.263Z,101155.19
2022-08-05T15:26:46.414Z,101153.63
2022-08-05T15:29:15.132Z,101151.69
2022-08-05T15:31:41.699Z,101151.53
2022-08-05T15:34:31.381Z,101140.50
2022-08-05T15:36:54.610Z,101151.56
2022-08-05T15:41:01.025Z,101152.31
2022-08-05T15:42:54.187Z,101154.81
2022-08-05T15:44:54.904Z,101152.59
2022-08-05T15:47:22.372Z,101154.69
2022-08-05T15:49:59.246Z,101155.28
2022-08-05T15:52:52.320Z,101155.00
2022-08-05T15:55:15.733Z,101163.25
2022-08-05T15:57:43.369Z,101161.41
2022-08-05T16:00:12.316Z,101161.44
2022-08-05T16:02:43.245Z,101170.84
2022-08-05T16:05:09.797Z,101166.94
2022-08-05T16:07:37.805Z,101169.53
2022-08-05T16:10:04.571Z,101175.75
2022-08-05T16:12:36.071Z,101178.59
2022-08-05T16:15:04.375Z,101182.25
2022-08-05T16:17:31.329Z,101185.22
2022-08-05T16:20:05.297Z,101187.25
2022-08-05T16:22:37.923Z,101178.84
2022-08-05T16:25:08.009Z,101181.09
2022-08-05T16:27:47.090Z,101187.78
2022-08-05T16:30:26.259Z,101192.16
2022-08-05T16:32:52.998Z,101185.09
2022-08-05T16:35:19.414Z,101185.00
2022-08-05T16:38:02.845Z,101187.91
2022-08-05T16:40:41.094Z,101193.47
2022-08-05T16:43:07.561Z,101206.66
2022-08-05T16:46:04.965Z,101206.78
2022-08-05T16:48:25.136Z,101219.94
2022-08-05T16:50:53.182Z,101214.31
2022-08-05T16:53:22.669Z,101219.16
2022-08-05T16:55:58.157Z,101219.69
2022-08-05T16:58:25.000Z,101227.75
2022-08-05T17:00:51.854Z,101230.81
2022-08-05T17:03:20.176Z,101227.75
2022-08-05T17:05:54.096Z,101227.34
2022-08-05T17:08:35.806Z,101228.66
2022-08-05T17:11:16.921Z,101237.03
2022-08-05T17:13:44.711Z,101236.94
2022-08-05T17:16:32.526Z,101239.31
2022-08-05T17:18:58.098Z,101239.75
2022-08-05T17:21:24.593Z,101239.75
2022-08-05T17:24:04.549Z,101257.66
2022-08-05T17:26:35.466Z,101256.13
2022-08-05T17:29:07.392Z,101268.56
2022-08-05T17:31:56.575Z,101266.78
2022-08-05T17:34:29.952Z,101269.19
2022-08-05T17:36:59.857Z,101269.19
2022-08-05T17:39:33.568Z,101276.94
2022-08-05T17:42:17.541Z,101285.59
2022-08-05T17:44:50.088Z,101271.50
2022-08-05T17:47:18.577Z,101276.47
2022-08-05T17:49:51.960Z,101276.63
2022-08-05T17:52:30.265Z,101277.84
2022-08-05T17:54:56.724Z,101287.97
2022-08-05T17:57:23.184Z,101297.78
2022-08-05T18:00:03.548Z,101305.84
2022-08-05T18:02:32.515Z,101301.53
2022-08-05T18:05:02.693Z,101309.28
2022-08-05T18:07:32.856Z,101313.91
2022-08-05T18:10:10.442Z,101309.69
2022-08-05T18:12:37.277Z,101321.69
2022-08-05T18:15:04.741Z,101321.69
2022-08-05T18:18:01.459Z,101322.56
2022-08-05T18:20:19.177Z,101326.56
2022-08-05T18:22:54.170Z,101337.81
2022-08-05T18:25:20.799Z,101334.06
2022-08-05T18:27:52.624Z,101341.94
2022-08-05T18:30:19.518Z,101347.44
2022-08-05T18:33:00.040Z,101339.06
2022-08-05T18:36:01.351Z,101349.97
2022-08-05T18:38:16.509Z,101351.38
2022-08-05T18:41:55.541Z,101358.72
2022-08-05T18:43:37.967Z,101353.03
2022-08-05T18:46:09.647Z,101365.41
2022-08-05T18:48:36.625Z,101372.00
2022-08-05T18:52:02.989Z,101369.69
2022-08-05T18:54:13.763Z,101373.19
2022-08-05T18:56:40.392Z,101373.53
2022-08-05T18:59:43.238Z,101371.69
2022-08-05T19:01:57.268Z,101373.75
2022-08-05T19:04:24.694Z,101383.88
2022-08-05T19:06:51.538Z,101383.31
2022-08-05T19:09:20.215Z,101391.50
2022-08-05T19:12:00.130Z,101391.75
2022-08-05T19:14:37.768Z,101395.78
2022-08-05T19:17:12.885Z,101400.69
2022-08-05T19:19:44.091Z,101409.69
2022-08-05T19:22:17.089Z,101411.88
2022-08-05T19:24:54.509Z,101419.78
2022-08-05T19:27:24.409Z,101413.88
2022-08-05T19:29:57.148Z,101420.53
2022-08-05T19:32:26.089Z,101420.16
2022-08-05T19:34:55.091Z,101426.50
2022-08-05T19:37:34.829Z,101430.00
2022-08-05T19:40:10.753Z,101429.75
2022-08-05T19:42:38.884Z,101435.53
2022-08-05T19:45:07.081Z,101442.63
2022-08-05T19:47:37.716Z,101452.28
2022-08-05T19:50:04.907Z,101454.25
2022-08-05T19:52:34.396Z,101457.59
2022-08-05T19:55:07.236Z,101460.25
2022-08-05T19:58:19.633Z,101465.47
2022-08-05T20:00:35.470Z,101478.78
2022-08-05T20:03:01.949Z,101481.81
2022-08-05T20:05:43.232Z,101484.00
2022-08-05T20:08:16.876Z,101480.47
2022-08-05T20:10:43.374Z,101495.47
2022-08-05T20:13:10.828Z,101494.03
2022-08-05T20:15:51.597Z,101495.84
2022-08-05T20:18:34.053Z,101503.78
2022-08-05T20:21:04.498Z,101507.19
2022-08-05T20:23:40.055Z,101512.50
2022-08-05T20:26:19.825Z,101518.91
2022-08-05T20:28:48.454Z,101511.72
2022-08-05T20:31:16.571Z,101527.66
2022-08-05T20:33:44.037Z,101530.19
2022-08-05T20:36:11.330Z,101532.81
2022-08-05T20:38:38.276Z,101535.16
2022-08-05T20:41:24.030Z,101534.50
2022-08-05T20:43:59.928Z,101539.16
2022-08-05T20:46:29.213Z,101534.06
2022-08-05T20:48:55.805Z,101536.75
2022-08-05T20:51:22.217Z,101552.66
2022-08-05T20:53:56.433Z,101546.38
2022-08-05T20:56:29.733Z,101554.25
2022-08-05T20:58:59.848Z,101544.69
2022-08-05T21:01:38.533Z,101555.13
2022-08-05T21:04:07.136Z,101553.22
2022-08-05T21:06:37.085Z,101555.94
2022-08-05T21:09:05.514Z,101567.41
2022-08-05T21:12:10.798Z,101573.34
2022-08-05T21:14:18.635Z,101571.66
2022-08-05T21:16:45.361Z,101566.63
2022-08-05T21:19:11.994Z,101572.13
2022-08-05T21:21:39.267Z,101567.94
2022-08-05T21:24:13.221Z,101579.41
2022-08-05T21:26:41.364Z,101577.09
2022-08-05T21:29:10.077Z,101572.19
2022-08-05T21:31:41.118Z,101583.13
2022-08-05T21:34:08.649Z,101575.28
2022-08-05T21:36:37.279Z,101580.81
2022-08-05T21:39:03.770Z,101586.44
2022-08-05T21:41:34.053Z,101587.16
2022-08-05T21:44:04.329Z,101594.06
2022-08-05T21:46:34.541Z,101597.97
2022-08-05T21:49:02.019Z,101588.34
2022-08-05T21:52:22.433Z,101599.00
2022-08-05T21:54:14.956Z,101602.41
2022-08-05T21:56:44.231Z,101597.13
2022-08-05T21:59:22.628Z,101605.97
2022-08-05T22:01:51.762Z,101605.56
2022-08-05T22:04:21.156Z,101608.66
2022-08-05T22:06:52.337Z,101612.88
2022-08-05T22:09:21.025Z,101609.72
2022-08-05T22:11:48.397Z,101608.28
2022-08-05T22:14:35.503Z,101608.97
2022-08-05T22:17:05.249Z,101620.16
2022-08-05T22:20:01.117Z,101627.75
2022-08-05T22:22:27.093Z,101632.75
2022-08-05T22:25:21.035Z,101626.91
2022-08-05T22:28:11.235Z,101630.53
2022-08-05T22:30:44.270Z,101632.00
2022-08-05T22:33:56.824Z,101639.16
2022-08-05T22:36:14.704Z,101634.81
2022-08-05T22:38:42.754Z,101638.50
2022-08-05T22:41:10.210Z,101636.34
2022-08-05T22:43:38.162Z,101633.75
2022-08-05T22:46:13.043Z,101629.19
2022-08-05T22:48:41.288Z,101639.63
2022-08-05T22:51:08.033Z,101643.16
2022-08-05T22:53:42.168Z,101646.06
2022-08-05T22:56:09.903Z,101651.28
2022-08-05T22:58:36.469Z,101650.47
2022-08-05T23:01:02.884Z,101660.31
2022-08-05T23:03:57.704Z,101662.72
2022-08-05T23:06:19.117Z,101653.50
2022-08-05T23:08:45.608Z,101661.13
2022-08-05T23:11:18.522Z,101664.94
2022-08-05T23:13:44.974Z,101659.56
2022-08-05T23:16:26.115Z,101671.03
2022-08-05T23:19:00.068Z,101667.75
2022-08-05T23:21:42.371Z,101672.28
2022-08-05T23:24:11.479Z,101675.66
2022-08-05T23:26:38.108Z,101682.56
2022-08-05T23:29:05.180Z,101687.78
2022-08-05T23:31:31.768Z,101683.06
2022-08-05T23:34:04.254Z,101692.66
2022-08-05T23:36:41.479Z,101699.22
2022-08-05T23:39:17.252Z,101700.81
2022-08-05T23:41:50.478Z,101706.56
2022-08-05T23:44:16.986Z,101710.63
2022-08-05T23:46:46.390Z,101710.53
2022-08-05T23:49:16.423Z,101713.34
2022-08-05T23:52:02.704Z,101712.38
2022-08-05T23:54:38.226Z,101717.16
2022-08-05T23:57:06.385Z,101721.44
